Terminal Aerodrome Forecast
Issued by NWS Cleveland, OH

Home | Current Version | Previous Version | Text Only | Print | Product List | Glossary Off
Versions: 1 2 3 4 5 6 7 8 9 10 11 12 13 14 15 16 17

000
FTUS41 KCLE 172300
TAFYNG
TAF
KYNG 172339Z 1800/1824 27012KT 6SM -SHSN OVC018
      TEMPO 1806/1810 2SM -SHSN
     FM181500 27008KT P6SM OVC025
     FM182100 27008KT P6SM BKN035=

USA.gov is the U.S. government's official web portal to all federal, state and local government web resources and services.